Time;durP1;ratioP1;P1;durP2;ratioP2;P2;SDS_P1;SDS_P2;PMS_P1;PMS_P2;Temp;Humidity;BMP_temperature;BMP_pressure;BME280_temperature;BME280_humidity;BME280_pressure;Samples;Min_cycle;Max_cycle;Signal;HPM_P1;HPM_P2
2022/10/03 00:00:18;;;;;;;;;;;10.70;99.90;;;;;;5025190;28;19925;-71
2022/10/03 00:02:56;;;;;;;;;;;10.70;99.90;;;;;;5019174;28;20330;-73
2022/10/03 00:05:41;;;;;;;;;;;10.60;99.90;;;;;;5023004;28;19925;-72
2022/10/03 00:08:36;;;;;;;;;;;10.50;99.90;;;;;;5024681;28;19985;-71
2022/10/03 00:11:20;;;;;;;;;;;10.50;99.90;;;;;;4997522;28;19979;-71
2022/10/03 00:13:58;;;;;;;;;;;10.60;99.90;;;;;;5004784;28;19929;-71
2022/10/03 00:16:28;;;;;;;;;;;10.60;99.90;;;;;;5008348;28;19932;-72
2022/10/03 00:18:59;;;;;;;;;;;10.50;99.90;;;;;;5029254;28;19925;-71
2022/10/03 00:21:40;;;;;;;;;;;10.40;99.90;;;;;;5025107;28;19929;-74
2022/10/03 00:24:11;;;;;;;;;;;10.40;99.90;;;;;;5022947;28;19925;-72
2022/10/03 00:26:48;;;;;;;;;;;10.40;99.90;;;;;;5025946;28;19929;-72
2022/10/03 00:29:38;;;;;;;;;;;10.40;99.90;;;;;;5019361;28;19929;-72
2022/10/03 00:32:29;;;;;;;;;;;10.40;99.90;;;;;;5042985;28;19925;-72
2022/10/03 00:35:03;;;;;;;;;;;10.50;99.90;;;;;;5006026;28;19929;-72
2022/10/03 00:37:37;;;;;;;;;;;10.50;99.90;;;;;;5006405;28;19996;-71
2022/10/03 00:40:28;;;;;;;;;;;10.40;99.90;;;;;;5021507;28;19943;-73
2022/10/03 00:43:08;;;;;;;;;;;10.30;99.90;;;;;;5030747;28;19975;-72
2022/10/03 00:45:54;;;;;;;;;;;10.30;99.90;;;;;;5020667;28;19980;-71
2022/10/03 00:49:04;;;;;;;;;;;10.20;99.90;;;;;;5024710;28;19925;-71
2022/10/03 00:51:44;;;;;;;;;;;10.20;99.90;;;;;;4959998;28;19974;-72
2022/10/03 00:54:24;;;;;;;;;;;10.10;99.90;;;;;;4965001;28;20179;-71
2022/10/03 00:57:01;;;;;;;;;;;10.10;99.90;;;;;;5002165;28;20727;-71
2022/10/03 00:59:40;;;;;;;;;;;10.10;99.90;;;;;;5006738;28;19959;-71
2022/10/03 01:02:30;;;;;;;;;;;10.10;99.90;;;;;;5023979;28;19988;-71
2022/10/03 01:05:05;;;;;;;;;;;10.10;99.90;;;;;;5006800;28;19987;-71
2022/10/03 01:07:42;;;;;;;;;;;10.20;99.90;;;;;;5000729;28;19972;-71
2022/10/03 01:10:14;;;;;;;;;;;10.20;99.90;;;;;;5024693;28;20377;-72
2022/10/03 01:12:50;;;;;;;;;;;10.20;99.90;;;;;;5002995;28;19933;-72
2022/10/03 01:15:30;;;;;;;;;;;10.20;99.90;;;;;;5001247;28;19932;-72
2022/10/03 01:18:11;;;;;;;;;;;10.20;99.90;;;;;;5007938;28;19929;-73
2022/10/03 01:20:50;;;;;;;;;;;10.10;99.90;;;;;;5027078;28;20387;-72
2022/10/03 01:23:21;;;;;;;;;;;10.10;99.90;;;;;;5022471;28;19925;-71
2022/10/03 01:26:02;;;;;;;;;;;10.00;99.90;;;;;;5020623;28;19925;-72
2022/10/03 01:31:39;;;;;;;;;;;10.00;99.90;;;;;;5020179;28;19933;-73
2022/10/03 01:34:15;;;;;;;;;;;10.00;99.90;;;;;;5017190;28;19932;-71
2022/10/03 01:37:06;;;;;;;;;;;10.10;99.90;;;;;;5019549;28;19933;-72
2022/10/03 01:39:54;;;;;;;;;;;10.00;99.90;;;;;;5004512;28;19976;-71
2022/10/03 01:42:44;;;;;;;;;;;10.00;99.90;;;;;;5022596;28;20375;-72
2022/10/03 01:45:30;;;;;;;;;;;10.10;99.90;;;;;;5010273;28;20379;-71
2022/10/03 01:48:31;;;;;;;;;;;10.00;99.90;;;;;;5000035;28;19929;-71
2022/10/03 01:51:10;;;;;;;;;;;10.00;99.90;;;;;;5009487;28;19992;-71
2022/10/03 01:54:08;;;;;;;;;;;10.00;99.90;;;;;;5018133;28;19925;-72
2022/10/03 01:56:39;;;;;;;;;;;10.00;99.90;;;;;;4976466;28;19925;-72
2022/10/03 01:59:16;;;;;;;;;;;10.00;99.90;;;;;;5008287;28;20350;-75
2022/10/03 02:02:00;;;;;;;;;;;9.90;99.90;;;;;;5022213;28;19929;-72
2022/10/03 02:04:54;;;;;;;;;;;9.90;99.90;;;;;;5006520;28;20212;-72
2022/10/03 02:07:26;;;;;;;;;;;9.90;99.90;;;;;;5017647;28;19933;-72
2022/10/03 02:10:18;;;;;;;;;;;9.80;99.90;;;;;;4992639;28;19930;-71
2022/10/03 02:12:49;;;;;;;;;;;9.80;99.90;;;;;;5009311;28;19940;-72
2022/10/03 02:15:33;;;;;;;;;;;9.70;99.90;;;;;;5018543;28;19929;-72
2022/10/03 02:18:14;;;;;;;;;;;9.70;99.90;;;;;;5025295;28;19929;-72
2022/10/03 02:20:47;;;;;;;;;;;9.80;99.90;;;;;;5001462;28;19959;-71
2022/10/03 02:23:31;;;;;;;;;;;9.80;99.90;;;;;;5003839;28;19925;-71
2022/10/03 02:26:07;;;;;;;;;;;9.70;99.90;;;;;;5020155;28;20400;-71
2022/10/03 02:29:02;;;;;;;;;;;9.60;99.90;;;;;;5025241;28;19925;-72
2022/10/03 02:31:40;;;;;;;;;;;9.50;99.90;;;;;;5010953;28;20589;-72
2022/10/03 02:34:30;;;;;;;;;;;9.40;99.90;;;;;;5024595;28;19979;-72
2022/10/03 02:37:10;;;;;;;;;;;9.30;99.90;;;;;;5014941;28;19925;-72
2022/10/03 02:39:42;;;;;;;;;;;9.30;99.90;;;;;;5010711;28;19929;-73
2022/10/03 02:42:32;;;;;;;;;;;9.30;99.90;;;;;;4989417;28;19933;-71
2022/10/03 02:45:31;;;;;;;;;;;9.30;99.90;;;;;;5006174;28;19929;-72
2022/10/03 02:48:05;;;;;;;;;;;9.30;99.90;;;;;;5023540;28;20308;-72
2022/10/03 02:50:37;;;;;;;;;;;9.30;99.90;;;;;;5008164;28;19933;-72
2022/10/03 02:53:09;;;;;;;;;;;9.40;99.90;;;;;;5016345;28;20399;-71
2022/10/03 02:56:04;;;;;;;;;;;9.30;99.90;;;;;;5001214;28;19933;-71
2022/10/03 02:59:09;;;;;;;;;;;9.30;99.90;;;;;;5021681;28;19929;-72
2022/10/03 03:02:01;;;;;;;;;;;9.30;99.90;;;;;;5002045;28;19937;-71
2022/10/03 03:04:51;;;;;;;;;;;9.30;99.90;;;;;;5029774;28;20403;-72
2022/10/03 03:07:35;;;;;;;;;;;9.30;99.90;;;;;;5028153;28;19925;-71
2022/10/03 03:10:17;;;;;;;;;;;9.30;99.90;;;;;;5008981;28;19929;-71
2022/10/03 03:13:05;;;;;;;;;;;9.30;99.90;;;;;;5020587;28;19956;-72
2022/10/03 03:15:55;;;;;;;;;;;9.30;99.90;;;;;;5027998;28;19980;-72
2022/10/03 03:18:40;;;;;;;;;;;9.30;99.90;;;;;;5024470;28;19925;-72
2022/10/03 03:21:19;;;;;;;;;;;9.30;99.90;;;;;;5002895;28;19929;-74
2022/10/03 03:24:09;;;;;;;;;;;9.20;99.90;;;;;;5010557;28;19972;-72
2022/10/03 03:26:43;;;;;;;;;;;9.20;99.90;;;;;;5026117;28;19925;-71
2022/10/03 03:29:27;;;;;;;;;;;9.10;99.90;;;;;;5025961;28;19925;-72
2022/10/03 03:32:13;;;;;;;;;;;9.00;99.90;;;;;;5010397;28;20033;-73
2022/10/03 03:34:58;;;;;;;;;;;9.10;99.90;;;;;;5021838;28;19980;-72
2022/10/03 03:37:37;;;;;;;;;;;9.10;99.90;;;;;;5028780;28;19926;-72
2022/10/03 03:40:04;;;;;;;;;;;9.00;99.90;;;;;;5010784;28;20544;-71
2022/10/03 03:42:44;;;;;;;;;;;9.00;99.90;;;;;;5017471;28;19949;-74
2022/10/03 03:45:37;;;;;;;;;;;8.90;99.90;;;;;;5044627;28;20406;-73
2022/10/03 03:48:20;;;;;;;;;;;8.80;99.90;;;;;;5012812;28;20307;-72
2022/10/03 03:50:47;;;;;;;;;;;8.90;99.90;;;;;;4998663;28;20335;-72
2022/10/03 03:53:21;;;;;;;;;;;8.80;99.90;;;;;;5012813;28;19948;-72
2022/10/03 03:55:59;;;;;;;;;;;8.80;99.90;;;;;;5026270;28;19932;-72
2022/10/03 03:58:37;;;;;;;;;;;8.90;99.90;;;;;;5015376;28;19925;-73
2022/10/03 04:01:12;;;;;;;;;;;9.00;99.90;;;;;;5012095;28;19929;-73
2022/10/03 04:03:44;;;;;;;;;;;9.00;99.90;;;;;;4998560;28;19925;-72
2022/10/03 04:06:33;;;;;;;;;;;9.00;99.90;;;;;;5006427;28;19925;-73
2022/10/03 04:09:05;;;;;;;;;;;9.00;99.90;;;;;;5022553;28;19948;-72
2022/10/03 04:11:50;;;;;;;;;;;8.90;99.90;;;;;;5012867;28;19925;-72
2022/10/03 04:14:40;;;;;;;;;;;8.90;99.90;;;;;;5015266;28;19929;-72
2022/10/03 04:20:22;;;;;;;;;;;8.90;99.90;;;;;;5004977;28;19952;-72
2022/10/03 04:23:01;;;;;;;;;;;8.80;99.90;;;;;;5002670;28;19926;-71
2022/10/03 04:25:53;;;;;;;;;;;8.60;99.90;;;;;;5028596;28;20404;-72
2022/10/03 04:28:25;;;;;;;;;;;8.60;99.90;;;;;;5015810;28;19932;-71
2022/10/03 04:31:06;;;;;;;;;;;8.50;99.90;;;;;;4996791;28;19925;-70
2022/10/03 04:33:50;;;;;;;;;;;8.40;99.90;;;;;;5003482;28;19944;-72
2022/10/03 04:36:41;;;;;;;;;;;8.30;99.90;;;;;;5021471;28;19999;-72
2022/10/03 04:39:16;;;;;;;;;;;8.30;99.90;;;;;;5000659;28;19929;-72
2022/10/03 04:42:02;;;;;;;;;;;8.20;99.90;;;;;;5001992;28;20392;-71
2022/10/03 04:44:50;;;;;;;;;;;8.20;99.90;;;;;;5021742;28;19932;-71
2022/10/03 04:47:21;;;;;;;;;;;8.20;99.90;;;;;;5009282;28;20497;-71
2022/10/03 04:49:55;;;;;;;;;;;8.20;99.90;;;;;;4998954;28;19925;-71
2022/10/03 04:52:40;;;;;;;;;;;8.20;99.90;;;;;;5023810;28;19929;-71
2022/10/03 04:55:26;;;;;;;;;;;8.20;99.90;;;;;;5024285;28;19933;-71
2022/10/03 04:58:06;;;;;;;;;;;8.30;99.90;;;;;;5025109;28;20281;-71
2022/10/03 05:01:05;;;;;;;;;;;8.20;99.90;;;;;;5027121;28;19936;-72
2022/10/03 05:03:42;;;;;;;;;;;8.10;99.90;;;;;;5024405;28;19933;-71
2022/10/03 05:06:30;;;;;;;;;;;7.90;99.90;;;;;;5026683;28;19929;-72
2022/10/03 05:09:03;;;;;;;;;;;7.80;99.90;;;;;;4995998;28;20029;-71
2022/10/03 05:12:02;;;;;;;;;;;7.70;99.90;;;;;;5006264;28;19929;-71
2022/10/03 05:15:06;;;;;;;;;;;7.70;99.90;;;;;;5008142;28;19925;-72
2022/10/03 05:17:51;;;;;;;;;;;7.80;99.90;;;;;;4972183;28;20372;-72
2022/10/03 05:20:32;;;;;;;;;;;7.70;99.90;;;;;;4980138;28;19930;-72
2022/10/03 05:23:30;;;;;;;;;;;7.70;99.90;;;;;;5016740;28;19926;-71
2022/10/03 05:26:05;;;;;;;;;;;7.70;99.90;;;;;;5003667;28;19978;-71
2022/10/03 05:28:53;;;;;;;;;;;7.60;99.90;;;;;;5031465;28;19997;-70
2022/10/03 05:31:27;;;;;;;;;;;7.60;99.90;;;;;;5021662;28;19980;-71
2022/10/03 05:34:11;;;;;;;;;;;7.50;99.90;;;;;;5031226;28;19932;-71
2022/10/03 05:36:52;;;;;;;;;;;7.50;99.90;;;;;;4998854;28;19987;-72
2022/10/03 05:39:23;;;;;;;;;;;7.50;99.90;;;;;;5008916;28;19929;-72
2022/10/03 05:42:15;;;;;;;;;;;7.40;99.90;;;;;;5032571;28;20346;-71
2022/10/03 05:45:07;;;;;;;;;;;7.50;99.90;;;;;;4962815;28;19926;-71
2022/10/03 05:47:48;;;;;;;;;;;7.50;99.90;;;;;;5005263;28;19929;-72
2022/10/03 05:50:35;;;;;;;;;;;7.50;99.90;;;;;;5015388;28;19932;-72
2022/10/03 05:53:23;;;;;;;;;;;7.50;99.90;;;;;;5011634;28;20007;-72
2022/10/03 05:55:57;;;;;;;;;;;7.50;99.90;;;;;;5029355;28;19925;-72
2022/10/03 05:58:49;;;;;;;;;;;7.60;99.90;;;;;;5027310;28;19929;-72
2022/10/03 06:01:21;;;;;;;;;;;7.60;99.90;;;;;;5012453;28;19929;-72
2022/10/03 06:04:16;;;;;;;;;;;7.60;99.90;;;;;;5017745;28;19994;-71
2022/10/03 06:06:59;;;;;;;;;;;7.60;99.90;;;;;;4997186;28;19980;-71
2022/10/03 06:09:45;;;;;;;;;;;7.60;99.90;;;;;;5021567;28;20408;-72
2022/10/03 06:12:29;;;;;;;;;;;7.70;99.90;;;;;;4999207;28;19982;-71
2022/10/03 06:15:02;;;;;;;;;;;7.70;99.90;;;;;;5001821;28;19926;-72
2022/10/03 06:17:48;;;;;;;;;;;7.80;99.90;;;;;;5022468;28;19925;-72
2022/10/03 06:20:21;;;;;;;;;;;7.80;99.90;;;;;;5002658;28;19980;-72
2022/10/03 06:23:02;;;;;;;;;;;7.90;99.90;;;;;;5020785;28;19925;-72
2022/10/03 06:25:52;;;;;;;;;;;7.90;99.90;;;;;;5021576;28;19987;-72
2022/10/03 06:28:37;;;;;;;;;;;8.10;99.90;;;;;;5012282;28;19979;-72
2022/10/03 06:31:43;;;;;;;;;;;8.10;99.90;;;;;;5022984;28;19926;-72
2022/10/03 06:34:14;;;;;;;;;;;8.20;99.90;;;;;;4926140;29;19931;-72
2022/10/03 06:36:58;;;;;;;;;;;8.30;99.90;;;;;;4926160;29;19931;-72
2022/10/03 06:39:53;;;;;;;;;;;8.40;99.90;;;;;;4984219;28;19936;-72
2022/10/03 06:42:43;;;;;;;;;;;8.40;99.90;;;;;;4985549;28;19959;-72
2022/10/03 06:45:26;;;;;;;;;;;8.40;99.90;;;;;;5022072;28;19925;-72
2022/10/03 06:48:04;;;;;;;;;;;8.50;99.90;;;;;;5035081;28;19956;-73
2022/10/03 06:50:45;;;;;;;;;;;8.60;99.90;;;;;;5025158;28;19929;-71
2022/10/03 06:53:39;;;;;;;;;;;8.60;99.90;;;;;;5047383;28;19940;-72
2022/10/03 06:56:19;;;;;;;;;;;8.60;99.90;;;;;;5046973;28;19925;-72
2022/10/03 06:59:10;;;;;;;;;;;8.60;99.90;;;;;;5010086;28;19959;-71
2022/10/03 07:01:58;;;;;;;;;;;8.70;99.90;;;;;;5013768;28;19987;-72
2022/10/03 07:04:32;;;;;;;;;;;8.70;99.90;;;;;;5022328;28;19925;-72
2022/10/03 07:07:04;;;;;;;;;;;8.80;99.90;;;;;;5016911;28;19975;-72
2022/10/03 07:09:53;;;;;;;;;;;8.90;99.90;;;;;;4994992;28;19926;-72
2022/10/03 07:12:39;;;;;;;;;;;9.00;99.90;;;;;;5027869;28;19983;-72
2022/10/03 07:15:30;;;;;;;;;;;9.00;99.90;;;;;;4999279;28;19975;-72
2022/10/03 07:18:05;;;;;;;;;;;9.10;99.90;;;;;;5034900;28;20200;-72
2022/10/03 07:20:57;;;;;;;;;;;9.10;99.90;;;;;;5015713;28;19926;-72
2022/10/03 07:23:29;;;;;;;;;;;9.20;99.90;;;;;;5007666;28;19930;-72
2022/10/03 07:26:19;;;;;;;;;;;9.20;99.90;;;;;;5023372;28;19928;-72
2022/10/03 07:29:00;;;;;;;;;;;9.30;99.90;;;;;;5021369;28;20216;-72
2022/10/03 07:31:50;;;;;;;;;;;9.40;99.90;;;;;;5026999;28;19932;-72
2022/10/03 07:34:28;;;;;;;;;;;9.50;99.90;;;;;;5010347;28;19971;-72
2022/10/03 07:39:53;;;;;;;;;;;9.60;99.90;;;;;;5019870;28;19945;-72
2022/10/03 07:42:45;;;;;;;;;;;9.70;99.90;;;;;;5027936;28;20257;-72
2022/10/03 07:45:23;;;;;;;;;;;9.80;99.90;;;;;;5027269;28;19925;-72
2022/10/03 07:48:13;;;;;;;;;;;9.90;99.90;;;;;;5005505;28;19933;-72
2022/10/03 07:50:50;;;;;;;;;;;10.00;99.90;;;;;;5026758;28;20354;-72
2022/10/03 07:53:27;;;;;;;;;;;10.10;99.90;;;;;;5001895;28;19926;-72
2022/10/03 07:56:02;;;;;;;;;;;10.20;99.90;;;;;;5012907;28;19987;-72
2022/10/03 07:58:50;;;;;;;;;;;10.20;99.90;;;;;;5014129;28;19955;-72
2022/10/03 08:01:27;;;;;;;;;;;10.30;99.90;;;;;;5027597;28;19945;-72
2022/10/03 08:04:18;;;;;;;;;;;10.50;99.90;;;;;;5008541;28;19925;-72
2022/10/03 08:06:59;;;;;;;;;;;10.60;99.90;;;;;;5034166;28;20418;-72
2022/10/03 08:09:35;;;;;;;;;;;10.70;99.90;;;;;;5025607;28;19932;-72
2022/10/03 08:12:09;;;;;;;;;;;10.80;99.90;;;;;;5011263;28;19983;-73
2022/10/03 08:14:49;;;;;;;;;;;10.80;99.90;;;;;;5016352;28;19941;-72
2022/10/03 08:17:43;;;;;;;;;;;10.80;99.90;;;;;;5008094;28;19929;-71
2022/10/03 08:20:33;;;;;;;;;;;10.80;99.90;;;;;;5027257;28;19936;-72
2022/10/03 08:23:00;;;;;;;;;;;10.90;99.90;;;;;;5011195;28;19925;-72
2022/10/03 08:25:40;;;;;;;;;;;11.00;99.90;;;;;;5006740;28;20414;-72
2022/10/03 08:28:41;;;;;;;;;;;11.00;99.90;;;;;;5006831;28;19979;-72
2022/10/03 08:31:24;;;;;;;;;;;11.00;99.90;;;;;;4946810;28;19925;-72
2022/10/03 08:34:14;;;;;;;;;;;11.00;99.90;;;;;;5029606;28;19947;-72
2022/10/03 08:37:15;;;;;;;;;;;11.00;99.90;;;;;;5007219;28;19925;-72
2022/10/03 08:40:06;;;;;;;;;;;11.00;99.90;;;;;;5003093;28;19929;-73
2022/10/03 08:42:41;;;;;;;;;;;11.00;99.90;;;;;;5023648;28;19926;-72
2022/10/03 08:45:29;;;;;;;;;;;11.00;99.90;;;;;;5008470;28;20362;-72
2022/10/03 08:48:19;;;;;;;;;;;11.10;99.90;;;;;;5018967;28;20338;-72
2022/10/03 08:51:04;;;;;;;;;;;11.10;99.90;;;;;;5023442;28;19972;-72
2022/10/03 08:53:30;;;;;;;;;;;11.20;99.90;;;;;;5033648;28;19929;-72
2022/10/03 08:56:06;;;;;;;;;;;11.20;99.90;;;;;;5006401;28;19925;-72
2022/10/03 08:58:47;;;;;;;;;;;11.30;99.90;;;;;;5004228;28;19949;-73
2022/10/03 09:01:36;;;;;;;;;;;11.30;99.90;;;;;;5027687;28;19929;-72
2022/10/03 09:04:10;;;;;;;;;;;11.20;99.90;;;;;;5029266;28;19948;-72
2022/10/03 09:06:53;;;;;;;;;;;11.20;99.90;;;;;;5024730;28;19970;-72
2022/10/03 09:09:34;;;;;;;;;;;11.20;99.90;;;;;;5007119;28;20291;-72
2022/10/03 09:12:24;;;;;;;;;;;11.30;99.90;;;;;;5013572;28;19976;-72
2022/10/03 09:14:59;;;;;;;;;;;11.50;99.90;;;;;;4993230;28;19925;-72
2022/10/03 09:17:34;;;;;;;;;;;11.60;99.90;;;;;;5026282;28;20379;-72
2022/10/03 09:20:32;;;;;;;;;;;11.70;99.90;;;;;;5027313;28;20311;-72
2022/10/03 09:23:10;;;;;;;;;;;11.80;99.90;;;;;;5018249;28;20403;-72
2022/10/03 09:25:57;;;;;;;;;;;11.90;99.90;;;;;;4981709;28;19933;-73
2022/10/03 09:28:29;;;;;;;;;;;12.00;99.90;;;;;;5028455;28;19929;-72
2022/10/03 09:31:19;;;;;;;;;;;12.30;99.90;;;;;;5021212;28;19929;-72
2022/10/03 09:33:54;;;;;;;;;;;12.40;99.90;;;;;;5007429;28;19925;-72
2022/10/03 09:36:37;;;;;;;;;;;12.40;99.90;;;;;;5021119;28;19925;-72
2022/10/03 09:39:29;;;;;;;;;;;12.60;99.90;;;;;;5029489;28;20301;-72
2022/10/03 09:42:16;;;;;;;;;;;12.60;99.90;;;;;;4995835;28;19925;-72
2022/10/03 09:45:08;;;;;;;;;;;12.50;99.90;;;;;;5022512;28;19952;-72
2022/10/03 09:47:43;;;;;;;;;;;12.60;99.90;;;;;;5021237;28;19926;-72
2022/10/03 09:50:28;;;;;;;;;;;12.70;99.90;;;;;;5020553;28;19929;-72
2022/10/03 09:53:03;;;;;;;;;;;12.70;99.90;;;;;;4998972;28;19925;-72
2022/10/03 09:55:53;;;;;;;;;;;12.70;99.90;;;;;;5011142;28;19933;-72
2022/10/03 09:58:36;;;;;;;;;;;12.80;99.90;;;;;;5026054;28;19940;-72
2022/10/03 10:01:26;;;;;;;;;;;13.00;99.90;;;;;;5024567;28;19925;-72
2022/10/03 10:04:10;;;;;;;;;;;13.20;99.90;;;;;;5040040;28;19925;-72
2022/10/03 10:06:42;;;;;;;;;;;13.40;99.90;;;;;;5013362;28;19925;-72
2022/10/03 10:09:16;;;;;;;;;;;13.60;99.90;;;;;;5001872;28;19980;-72
2022/10/03 10:11:51;;;;;;;;;;;13.70;99.90;;;;;;5016115;28;20486;-72
2022/10/03 10:14:32;;;;;;;;;;;13.60;99.90;;;;;;5024596;28;19925;-72
2022/10/03 10:16:59;;;;;;;;;;;13.60;99.90;;;;;;5028078;28;19925;-72
2022/10/03 10:19:45;;;;;;;;;;;13.40;99.90;;;;;;5002132;28;19926;-71
2022/10/03 10:22:24;;;;;;;;;;;13.40;99.90;;;;;;5013827;28;19925;-72
2022/10/03 10:25:02;;;;;;;;;;;13.20;99.90;;;;;;5006704;28;19925;-72
2022/10/03 10:27:41;;;;;;;;;;;13.20;99.90;;;;;;5006750;28;20024;-72
2022/10/03 10:30:21;;;;;;;;;;;13.30;99.90;;;;;;5003668;28;19929;-72
2022/10/03 10:33:08;;;;;;;;;;;13.40;99.90;;;;;;5026506;28;19999;-72
2022/10/03 10:35:46;;;;;;;;;;;13.50;99.90;;;;;;5015306;28;19932;-72
2022/10/03 10:38:50;;;;;;;;;;;13.60;99.90;;;;;;5012569;28;19929;-72
2022/10/03 10:41:51;;;;;;;;;;;13.60;99.90;;;;;;4984624;28;19925;-72
2022/10/03 10:44:45;;;;;;;;;;;13.50;99.90;;;;;;5025674;28;20346;-72
2022/10/03 10:47:35;;;;;;;;;;;13.50;99.90;;;;;;4994677;28;20400;-72
2022/10/03 10:50:19;;;;;;;;;;;13.60;99.90;;;;;;5016032;28;19926;-72
2022/10/03 10:53:11;;;;;;;;;;;13.70;99.90;;;;;;5025392;28;20449;-72
2022/10/03 10:56:02;;;;;;;;;;;13.80;99.90;;;;;;5019768;28;20345;-72
2022/10/03 10:58:56;;;;;;;;;;;13.90;99.90;;;;;;4999348;28;20384;-72
2022/10/03 11:01:47;;;;;;;;;;;14.00;99.90;;;;;;5015937;28;19968;-72
2022/10/03 11:04:31;;;;;;;;;;;14.20;99.90;;;;;;5009895;28;19933;-71
2022/10/03 11:07:02;;;;;;;;;;;14.10;99.90;;;;;;4996492;28;19926;-72
2022/10/03 11:09:38;;;;;;;;;;;14.10;99.90;;;;;;4990226;28;19930;-72
2022/10/03 11:12:22;;;;;;;;;;;14.20;99.90;;;;;;5023600;28;19929;-72
2022/10/03 11:15:05;;;;;;;;;;;14.40;99.90;;;;;;5006344;28;19937;-72
2022/10/03 11:17:56;;;;;;;;;;;14.50;99.90;;;;;;5003064;28;19988;-72
2022/10/03 11:20:46;;;;;;;;;;;14.60;99.90;;;;;;5016286;28;19926;-72
2022/10/03 11:23:20;;;;;;;;;;;14.70;99.90;;;;;;5016282;28;19929;-72
2022/10/03 11:26:01;;;;;;;;;;;14.80;99.90;;;;;;5025279;28;19925;-72
2022/10/03 11:28:46;;;;;;;;;;;14.90;99.90;;;;;;5012284;28;19956;-72
2022/10/03 11:31:37;;;;;;;;;;;15.00;99.90;;;;;;5000773;28;19953;-72
2022/10/03 11:34:14;;;;;;;;;;;15.20;99.90;;;;;;5023626;28;19929;-72
2022/10/03 11:36:59;;;;;;;;;;;15.40;99.90;;;;;;5008871;28;19929;-72
2022/10/03 11:39:31;;;;;;;;;;;15.50;99.90;;;;;;5006941;28;20359;-72
2022/10/03 11:42:26;;;;;;;;;;;15.60;99.90;;;;;;5027822;28;19926;-72
2022/10/03 11:44:55;;;;;;;;;;;15.50;99.90;;;;;;5017779;28;20289;-72
2022/10/03 11:47:37;;;;;;;;;;;15.60;99.90;;;;;;5023609;28;19995;-72
2022/10/03 11:50:17;;;;;;;;;;;15.50;99.90;;;;;;5007466;28;19933;-72
2022/10/03 11:53:08;;;;;;;;;;;15.60;99.90;;;;;;5004374;28;19929;-72
2022/10/03 11:55:50;;;;;;;;;;;15.70;99.90;;;;;;5015093;28;20462;-72
2022/10/03 11:58:25;;;;;;;;;;;15.60;99.90;;;;;;5000013;28;19952;-72
2022/10/03 12:01:08;;;;;;;;;;;15.60;99.90;;;;;;5007249;28;19925;-72
2022/10/03 12:03:48;;;;;;;;;;;15.40;99.90;;;;;;4994752;28;20407;-72
2022/10/03 12:09:53;;;;;;;;;;;15.20;99.90;;;;;;5025437;28;19925;-72
2022/10/03 12:12:44;;;;;;;;;;;15.00;99.90;;;;;;5025604;28;19932;-72
2022/10/03 12:15:15;;;;;;;;;;;14.90;99.90;;;;;;5006249;28;19949;-72
2022/10/03 12:17:45;;;;;;;;;;;14.90;99.90;;;;;;5017680;28;19929;-72
2022/10/03 12:20:17;;;;;;;;;;;14.90;99.90;;;;;;5019951;28;19955;-72
2022/10/03 12:22:54;;;;;;;;;;;14.80;99.90;;;;;;5021407;28;19929;-72
2022/10/03 12:25:29;;;;;;;;;;;14.80;99.90;;;;;;5021875;28;19930;-72
2022/10/03 12:28:20;;;;;;;;;;;14.80;99.90;;;;;;5000317;28;19956;-72
2022/10/03 12:30:52;;;;;;;;;;;14.80;99.90;;;;;;5024155;28;19929;-72
2022/10/03 12:33:35;;;;;;;;;;;14.80;99.90;;;;;;5022835;28;19976;-72
2022/10/03 12:36:14;;;;;;;;;;;14.80;99.90;;;;;;5020355;28;20338;-73
2022/10/03 12:39:00;;;;;;;;;;;14.80;99.90;;;;;;5022057;28;19930;-72
2022/10/03 12:41:51;;;;;;;;;;;14.80;99.90;;;;;;5019373;28;19929;-72
2022/10/03 12:44:31;;;;;;;;;;;14.80;99.90;;;;;;5005112;28;19925;-72
2022/10/03 12:47:22;;;;;;;;;;;14.80;99.90;;;;;;5009353;28;19936;-72
2022/10/03 12:50:12;;;;;;;;;;;14.80;99.90;;;;;;5023999;28;19987;-72
2022/10/03 12:53:04;;;;;;;;;;;14.80;99.90;;;;;;5023236;28;19975;-72
2022/10/03 12:55:37;;;;;;;;;;;15.00;99.90;;;;;;4985636;28;19926;-72
2022/10/03 12:58:17;;;;;;;;;;;15.30;99.90;;;;;;5021530;28;19948;-72
2022/10/03 13:00:54;;;;;;;;;;;15.60;99.90;;;;;;5011227;28;19929;-72
2022/10/03 13:03:27;;;;;;;;;;;15.70;99.90;;;;;;5013628;28;19926;-72
2022/10/03 13:06:05;;;;;;;;;;;16.00;99.90;;;;;;4998188;28;20380;-73
2022/10/03 13:08:54;;;;;;;;;;;16.10;99.90;;;;;;5024395;28;19964;-72
2022/10/03 13:11:44;;;;;;;;;;;16.20;99.90;;;;;;5010990;28;20272;-72
2022/10/03 13:14:37;;;;;;;;;;;16.10;99.90;;;;;;5036542;28;19925;-72
2022/10/03 13:17:18;;;;;;;;;;;15.90;99.90;;;;;;5018039;28;19926;-72
2022/10/03 13:20:23;;;;;;;;;;;15.70;99.90;;;;;;4993491;28;19937;-72
2022/10/03 13:23:20;;;;;;;;;;;15.50;99.90;;;;;;4982225;28;19964;-72
2022/10/03 13:26:07;;;;;;;;;;;15.50;99.90;;;;;;4968811;28;20454;-72
2022/10/03 13:28:58;;;;;;;;;;;15.40;99.90;;;;;;4991291;28;19961;-72
2022/10/03 13:31:31;;;;;;;;;;;15.50;99.90;;;;;;4987659;28;20366;-72
2022/10/03 13:34:09;;;;;;;;;;;15.50;99.90;;;;;;5023172;28;19932;-72
2022/10/03 13:36:43;;;;;;;;;;;15.40;99.90;;;;;;5019728;28;19932;-73
2022/10/03 13:39:22;;;;;;;;;;;15.30;99.90;;;;;;4991942;28;20395;-72
2022/10/03 13:41:49;;;;;;;;;;;15.40;99.90;;;;;;4988353;28;19983;-72
2022/10/03 13:44:22;;;;;;;;;;;15.40;99.90;;;;;;5022427;28;20384;-72
2022/10/03 13:47:12;;;;;;;;;;;15.40;99.90;;;;;;5020762;28;19925;-72
2022/10/03 13:49:51;;;;;;;;;;;15.40;99.90;;;;;;4999546;28;19952;-72
2022/10/03 13:52:26;;;;;;;;;;;15.50;99.90;;;;;;5027496;28;19960;-72
2022/10/03 13:55:09;;;;;;;;;;;15.70;99.90;;;;;;5001766;28;19929;-72
2022/10/03 13:57:43;;;;;;;;;;;15.80;99.90;;;;;;4991143;28;19925;-72
2022/10/03 14:00:13;;;;;;;;;;;15.90;99.90;;;;;;5021901;28;20343;-72
2022/10/03 14:02:48;;;;;;;;;;;15.90;99.90;;;;;;5011320;28;20285;-72
2022/10/03 14:05:38;;;;;;;;;;;16.00;99.90;;;;;;5020526;28;19980;-72
2022/10/03 14:08:10;;;;;;;;;;;16.10;99.90;;;;;;4994097;28;19979;-72
2022/10/03 14:10:58;;;;;;;;;;;16.00;99.90;;;;;;5021685;28;19971;-72
2022/10/03 14:13:43;;;;;;;;;;;15.90;99.90;;;;;;4997697;28;20031;-72
2022/10/03 14:16:15;;;;;;;;;;;15.80;99.90;;;;;;4999667;28;20343;-72
2022/10/03 14:18:46;;;;;;;;;;;15.70;99.90;;;;;;5021668;28;19929;-72
2022/10/03 14:21:39;;;;;;;;;;;15.60;99.90;;;;;;5022758;28;19979;-72
2022/10/03 14:24:30;;;;;;;;;;;15.50;99.90;;;;;;5019552;28;20331;-72
2022/10/03 14:27:20;;;;;;;;;;;15.40;99.90;;;;;;5011862;28;19979;-72
2022/10/03 14:30:05;;;;;;;;;;;15.40;99.90;;;;;;5006546;28;19926;-72
2022/10/03 14:32:44;;;;;;;;;;;15.50;99.90;;;;;;5028821;28;19925;-73
2022/10/03 14:35:36;;;;;;;;;;;15.50;99.90;;;;;;5026882;28;20303;-72
2022/10/03 14:38:23;;;;;;;;;;;15.60;99.90;;;;;;5011884;28;19952;-72
2022/10/03 14:41:04;;;;;;;;;;;15.70;99.90;;;;;;4995708;28;19975;-72
2022/10/03 14:43:49;;;;;;;;;;;15.80;99.90;;;;;;5021620;28;19932;-72
2022/10/03 14:46:23;;;;;;;;;;;15.60;99.90;;;;;;5004097;28;20284;-72
2022/10/03 14:48:57;;;;;;;;;;;15.50;99.90;;;;;;4988780;28;19972;-72
2022/10/03 14:51:39;;;;;;;;;;;15.50;99.90;;;;;;5027567;28;19932;-72
2022/10/03 14:54:19;;;;;;;;;;;15.60;99.90;;;;;;5001038;28;19979;-72
2022/10/03 14:56:52;;;;;;;;;;;15.70;99.90;;;;;;5033042;28;20081;-72
2022/10/03 14:59:23;;;;;;;;;;;16.10;99.90;;;;;;5027489;28;19925;-72
2022/10/03 15:01:56;;;;;;;;;;;16.40;99.90;;;;;;5022916;28;19925;-72
2022/10/03 15:04:38;;;;;;;;;;;16.60;99.90;;;;;;5010267;28;19937;-72
2022/10/03 15:07:12;;;;;;;;;;;16.60;99.90;;;;;;5030008;28;19932;-72
2022/10/03 15:09:48;;;;;;;;;;;16.60;99.90;;;;;;5031286;28;19971;-72
2022/10/03 15:12:25;;;;;;;;;;;16.70;99.90;;;;;;5028385;28;19929;-72
2022/10/03 15:15:06;;;;;;;;;;;16.90;99.90;;;;;;5026459;28;19979;-73
2022/10/03 15:17:46;;;;;;;;;;;17.10;99.90;;;;;;5010000;28;19971;-73
2022/10/03 15:20:16;;;;;;;;;;;17.20;99.90;;;;;;5016793;28;20453;-73
2022/10/03 15:22:51;;;;;;;;;;;17.20;99.90;;;;;;5016506;28;19924;-73
2022/10/03 15:25:19;;;;;;;;;;;17.40;99.90;;;;;;5006759;28;19932;-73
2022/10/03 15:27:52;;;;;;;;;;;17.50;99.90;;;;;;5013492;28;19998;-73
2022/10/03 15:30:29;;;;;;;;;;;17.50;99.90;;;;;;5001257;28;20612;-73
2022/10/03 15:33:14;;;;;;;;;;;17.30;99.90;;;;;;4991008;28;19929;-72
2022/10/03 15:35:42;;;;;;;;;;;17.10;99.90;;;;;;5028603;28;20399;-73
2022/10/03 15:38:26;;;;;;;;;;;16.80;99.90;;;;;;5005176;28;20396;-73
2022/10/03 15:41:05;;;;;;;;;;;16.60;99.90;;;;;;4999175;28;19925;-72
2022/10/03 15:43:52;;;;;;;;;;;16.40;99.90;;;;;;5008962;28;19976;-73
2022/10/03 15:46:33;;;;;;;;;;;16.30;99.90;;;;;;5030793;28;19926;-72
2022/10/03 15:49:03;;;;;;;;;;;16.50;99.90;;;;;;5029865;28;19925;-72
2022/10/03 15:51:37;;;;;;;;;;;17.00;99.90;;;;;;5026975;28;19925;-73
2022/10/03 15:54:12;;;;;;;;;;;17.70;99.90;;;;;;5011681;28;19992;-73
2022/10/03 15:56:47;;;;;;;;;;;18.30;99.90;;;;;;5027589;28;19926;-73
2022/10/03 15:59:20;;;;;;;;;;;18.40;99.90;;;;;;5003972;28;19975;-73